createdAt,value
2019-03-24T00:02:01.337Z,6.86
2019-03-24T00:04:12.282Z,6.84
2019-03-24T00:06:23.151Z,6.82
2019-03-24T00:08:34.013Z,6.79
2019-03-24T00:10:44.939Z,6.81
2019-03-24T00:12:55.789Z,6.85
2019-03-24T00:15:07.028Z,6.83
2019-03-24T00:17:17.877Z,6.77
2019-03-24T00:19:28.808Z,6.62
2019-03-24T00:21:39.655Z,6.57
2019-03-24T00:23:50.515Z,6.53
2019-03-24T00:26:01.355Z,6.52
2019-03-24T00:28:12.223Z,6.51
2019-03-24T00:30:23.173Z,6.46
2019-03-24T00:32:34.136Z,6.42
2019-03-24T00:34:44.973Z,6.39
2019-03-24T00:36:55.806Z,6.29
2019-03-24T00:39:06.778Z,6.18
2019-03-24T00:41:17.616Z,6.12
2019-03-24T00:43:28.623Z,6.15
2019-03-24T00:45:39.479Z,6.21
2019-03-24T00:47:50.318Z,6.26
2019-03-24T00:50:04.038Z,6.27
2019-03-24T00:52:15.028Z,6.31
2019-03-24T00:54:25.995Z,6.32
2019-03-24T00:56:36.830Z,6.30
2019-03-24T00:58:47.807Z,6.31
2019-03-24T01:01:00.591Z,6.32
2019-03-24T01:03:11.864Z,6.32
2019-03-24T01:05:22.922Z,6.34
2019-03-24T01:07:33.872Z,6.31
2019-03-24T01:09:44.935Z,6.29
2019-03-24T01:11:55.785Z,6.24
2019-03-24T01:14:06.752Z,6.17
2019-03-24T01:16:17.698Z,6.11
2019-03-24T01:18:28.654Z,6.05
2019-03-24T01:20:39.539Z,6.03
2019-03-24T01:22:50.436Z,6.05
2019-03-24T01:25:01.387Z,6.00
2019-03-24T01:27:12.223Z,5.99
2019-03-24T01:29:23.056Z,5.89
2019-03-24T01:31:34.039Z,5.78
2019-03-24T01:33:44.878Z,5.65
2019-03-24T01:35:55.733Z,5.54
2019-03-24T01:38:06.680Z,5.49
2019-03-24T01:40:17.629Z,5.41
2019-03-24T01:42:28.561Z,5.35
2019-03-24T01:44:39.792Z,5.29
2019-03-24T01:46:50.656Z,5.31
2019-03-24T01:49:01.746Z,5.25
2019-03-24T01:51:12.615Z,5.29
2019-03-24T01:53:23.451Z,5.35
2019-03-24T01:55:34.316Z,5.41
2019-03-24T01:57:45.157Z,5.35
2019-03-24T01:59:55.981Z,5.31
2019-03-24T02:02:06.939Z,5.29
2019-03-24T02:04:17.813Z,5.22
2019-03-24T02:06:28.671Z,5.26
2019-03-24T02:08:39.519Z,5.19
2019-03-24T02:10:50.368Z,5.16
2019-03-24T02:13:01.357Z,5.17
2019-03-24T02:15:12.372Z,5.18
2019-03-24T02:17:23.265Z,5.19
2019-03-24T02:19:34.204Z,5.18
2019-03-24T02:21:45.139Z,5.21
2019-03-24T02:23:56.005Z,5.25
2019-03-24T02:26:06.887Z,5.29
2019-03-24T02:28:17.884Z,5.35
2019-03-24T02:30:28.940Z,5.36
2019-03-24T02:32:39.779Z,5.32
2019-03-24T02:34:50.624Z,5.27
2019-03-24T02:37:01.475Z,5.30
2019-03-24T02:39:12.300Z,5.29
2019-03-24T02:41:23.169Z,5.28
2019-03-24T02:43:34.086Z,5.25
2019-03-24T02:45:44.941Z,5.20
2019-03-24T02:47:55.997Z,5.20
2019-03-24T02:50:07.655Z,5.10
2019-03-24T02:52:18.493Z,4.97
2019-03-24T02:54:29.372Z,4.86
2019-03-24T02:56:40.254Z,4.83
2019-03-24T02:58:51.275Z,4.83
2019-03-24T03:01:02.247Z,4.75
2019-03-24T03:03:13.071Z,4.65
2019-03-24T03:05:23.908Z,4.59
2019-03-24T03:07:36.865Z,4.62
2019-03-24T03:09:47.703Z,4.73
2019-03-24T03:11:58.663Z,4.76
2019-03-24T03:14:09.509Z,4.79
2019-03-24T03:16:20.344Z,4.83
2019-03-24T03:18:31.206Z,4.83
2019-03-24T03:20:42.065Z,4.86
2019-03-24T03:22:52.920Z,4.83
2019-03-24T03:25:06.930Z,4.77
2019-03-24T03:27:17.879Z,4.79
2019-03-24T03:29:29.100Z,4.77
2019-03-24T03:31:39.953Z,4.75
2019-03-24T03:33:50.870Z,4.68
2019-03-24T03:36:01.792Z,4.62
2019-03-24T03:38:12.641Z,4.60
2019-03-24T03:40:23.490Z,4.60
2019-03-24T03:42:34.831Z,4.61
2019-03-24T03:44:45.724Z,4.66
2019-03-24T03:46:56.580Z,4.69
2019-03-24T03:49:07.452Z,4.72
2019-03-24T03:51:18.390Z,4.71
2019-03-24T03:53:29.258Z,4.75
2019-03-24T03:55:40.089Z,4.75
2019-03-24T03:57:50.914Z,4.68
2019-03-24T04:00:06.957Z,4.59
2019-03-24T04:02:17.899Z,4.52
2019-03-24T04:04:28.805Z,4.47
2019-03-24T04:06:39.650Z,4.39
2019-03-24T04:08:50.555Z,4.26
2019-03-24T04:11:01.391Z,4.27
2019-03-24T04:13:12.253Z,4.25
2019-03-24T04:15:23.184Z,4.22
2019-03-24T04:17:34.130Z,4.22
2019-03-24T04:19:44.990Z,4.20
2019-03-24T04:21:55.831Z,4.16
2019-03-24T04:24:06.812Z,4.17
2019-03-24T04:26:17.667Z,4.14
2019-03-24T04:28:28.518Z,4.15
2019-03-24T04:30:39.491Z,4.22
2019-03-24T04:32:50.323Z,4.26
2019-03-24T04:35:01.163Z,4.20
2019-03-24T04:37:12.098Z,4.17
2019-03-24T04:39:22.950Z,4.15
2019-03-24T04:41:33.777Z,4.14
2019-03-24T04:43:44.617Z,4.13
2019-03-24T04:45:55.485Z,4.08
2019-03-24T04:48:06.316Z,4.08
2019-03-24T04:50:17.163Z,4.08
2019-03-24T04:52:28.011Z,4.04
2019-03-24T04:54:38.889Z,4.03
2019-03-24T04:56:49.722Z,4.08
2019-03-24T04:59:00.562Z,4.01
2019-03-24T05:01:11.407Z,3.98
2019-03-24T05:03:22.287Z,3.96
2019-03-24T05:05:33.255Z,3.94
2019-03-24T05:07:44.376Z,3.94
2019-03-24T05:09:55.324Z,3.97
2019-03-24T05:12:06.164Z,4.01
2019-03-24T05:14:16.995Z,3.97
2019-03-24T05:16:27.849Z,3.95
2019-03-24T05:18:38.687Z,3.98
2019-03-24T05:20:49.547Z,3.96
2019-03-24T05:23:00.382Z,3.97
2019-03-24T05:25:11.214Z,3.95
2019-03-24T05:27:22.169Z,3.88
2019-03-24T05:29:33.055Z,3.86
2019-03-24T05:31:43.917Z,3.84
2019-03-24T05:33:54.869Z,3.83
2019-03-24T05:36:05.722Z,3.83
2019-03-24T05:38:16.561Z,3.84
2019-03-24T05:40:27.417Z,3.90
2019-03-24T05:42:38.269Z,4.04
2019-03-24T05:44:49.116Z,4.15
2019-03-24T05:46:59.996Z,4.21
2019-03-24T05:49:10.853Z,4.23
2019-03-24T05:51:21.711Z,4.32
2019-03-24T05:53:32.548Z,4.40
2019-03-24T05:55:43.387Z,4.50
2019-03-24T05:57:54.347Z,4.65
2019-03-24T06:00:08.227Z,4.77
2019-03-24T06:02:19.089Z,4.85
2019-03-24T06:04:29.946Z,4.89
2019-03-24T06:06:40.804Z,4.90
2019-03-24T06:08:51.665Z,4.88
2019-03-24T06:11:02.708Z,4.85
2019-03-24T06:13:13.560Z,4.87
2019-03-24T06:15:24.412Z,4.87
2019-03-24T06:17:35.247Z,5.01
2019-03-24T06:19:46.114Z,5.18
2019-03-24T06:21:57.036Z,5.27
2019-03-24T06:24:07.905Z,5.30
2019-03-24T06:26:18.841Z,5.39
2019-03-24T06:28:29.685Z,5.50
2019-03-24T06:30:40.545Z,5.57
2019-03-24T06:32:51.443Z,5.63
2019-03-24T06:35:03.398Z,5.80
2019-03-24T06:37:14.226Z,5.96
2019-03-24T06:39:25.119Z,6.16
2019-03-24T06:41:36.040Z,6.38
2019-03-24T06:43:46.880Z,6.65
2019-03-24T06:45:57.749Z,6.95
2019-03-24T06:48:08.586Z,7.29
2019-03-24T06:50:21.344Z,7.71
2019-03-24T06:52:32.385Z,8.10
2019-03-24T06:54:43.335Z,8.34
2019-03-24T06:56:54.209Z,8.70
2019-03-24T06:59:05.114Z,8.99
2019-03-24T07:01:15.983Z,9.24
2019-03-24T07:03:26.820Z,9.50
2019-03-24T07:05:39.516Z,9.75
2019-03-24T07:07:50.372Z,9.96
2019-03-24T07:10:01.627Z,10.15
2019-03-24T07:12:12.500Z,10.40
2019-03-24T07:14:23.357Z,10.69
2019-03-24T07:16:34.219Z,10.91
2019-03-24T07:18:45.076Z,11.32
2019-03-24T07:20:55.926Z,11.70
2019-03-24T07:23:06.771Z,11.74
2019-03-24T07:25:17.814Z,11.72
2019-03-24T07:27:28.657Z,11.80
2019-03-24T07:29:41.198Z,12.01
2019-03-24T07:31:52.165Z,12.16
2019-03-24T07:34:03.103Z,12.41
2019-03-24T07:36:13.952Z,12.61
2019-03-24T07:38:24.814Z,12.76
2019-03-24T07:40:37.557Z,12.87
2019-03-24T07:42:48.424Z,12.88
2019-03-24T07:44:59.294Z,13.08
2019-03-24T07:47:11.045Z,13.23
2019-03-24T07:49:22.001Z,13.23
2019-03-24T07:51:32.850Z,13.40
2019-03-24T07:53:43.715Z,13.39
2019-03-24T07:55:54.682Z,13.42
2019-03-24T07:58:05.549Z,13.28
2019-03-24T08:00:20.303Z,13.50
2019-03-24T08:02:31.172Z,13.50
2019-03-24T08:04:42.020Z,13.74
2019-03-24T08:06:52.998Z,13.78
2019-03-24T08:09:05.274Z,13.79
2019-03-24T08:11:16.103Z,13.94
2019-03-24T08:13:26.953Z,13.98
2019-03-24T08:15:37.911Z,14.04
2019-03-24T08:17:48.889Z,14.16
2019-03-24T08:19:59.750Z,14.45
2019-03-24T08:22:10.666Z,14.53
2019-03-24T08:24:21.534Z,14.56
2019-03-24T08:26:32.376Z,14.61
2019-03-24T08:28:43.334Z,14.61
2019-03-24T08:30:54.174Z,14.60
2019-03-24T08:33:05.196Z,14.63
2019-03-24T08:35:16.044Z,14.66
2019-03-24T08:37:26.893Z,14.89
2019-03-24T08:39:37.761Z,15.18
2019-03-24T08:41:48.596Z,15.29
2019-03-24T08:43:59.867Z,15.22
2019-03-24T08:46:12.626Z,15.35
2019-03-24T08:48:23.483Z,15.48
2019-03-24T08:50:34.392Z,15.46
2019-03-24T08:52:45.232Z,15.30
2019-03-24T08:54:56.090Z,15.24
2019-03-24T08:57:06.938Z,15.24
2019-03-24T08:59:17.842Z,15.39
2019-03-24T09:01:28.792Z,15.50
2019-03-24T09:03:39.658Z,15.47
2019-03-24T09:05:50.521Z,15.47
2019-03-24T09:08:01.354Z,15.32
2019-03-24T09:10:12.536Z,15.34
2019-03-24T09:12:23.473Z,15.33
2019-03-24T09:14:34.327Z,15.48
2019-03-24T09:16:45.177Z,15.55
2019-03-24T09:18:56.126Z,15.63
2019-03-24T09:21:06.989Z,15.75
2019-03-24T09:23:17.839Z,15.95
2019-03-24T09:25:28.758Z,16.24
2019-03-24T09:27:39.676Z,16.35
2019-03-24T09:29:50.690Z,16.10
2019-03-24T09:32:01.517Z,16.10
2019-03-24T09:34:12.468Z,16.06
2019-03-24T09:36:23.346Z,16.08
2019-03-24T09:38:34.186Z,16.25
2019-03-24T09:40:45.050Z,16.13
2019-03-24T09:42:57.035Z,16.14
2019-03-24T09:45:08.135Z,16.07
2019-03-24T09:47:18.990Z,16.09
2019-03-24T09:49:29.851Z,16.33
2019-03-24T09:51:40.714Z,16.41
2019-03-24T09:53:51.577Z,16.36
2019-03-24T09:56:02.577Z,16.56
2019-03-24T09:58:13.374Z,16.55
2019-03-24T10:00:25.121Z,16.66
2019-03-24T10:02:35.979Z,16.75
2019-03-24T10:04:46.814Z,16.81
2019-03-24T10:06:57.689Z,16.91
2019-03-24T10:09:08.535Z,17.04
2019-03-24T10:11:19.389Z,17.08
2019-03-24T10:13:30.362Z,17.16
2019-03-24T10:15:41.414Z,17.26
2019-03-24T10:17:52.394Z,17.19
2019-03-24T10:20:03.836Z,17.15
2019-03-24T10:22:14.705Z,16.93
2019-03-24T10:24:25.541Z,16.91
2019-03-24T10:26:36.504Z,17.06
2019-03-24T10:28:47.751Z,17.01
2019-03-24T10:30:58.682Z,17.18
2019-03-24T10:33:09.549Z,17.75
2019-03-24T10:35:20.395Z,18.11
2019-03-24T10:37:31.257Z,18.50
2019-03-24T10:39:42.166Z,18.79
2019-03-24T10:41:53.124Z,18.86
2019-03-24T10:44:03.982Z,18.92
2019-03-24T10:46:14.842Z,18.88
2019-03-24T10:48:33.586Z,18.75
2019-03-24T10:50:38.566Z,18.82
2019-03-24T10:52:49.516Z,19.09
2019-03-24T10:55:00.463Z,19.17
2019-03-24T10:57:11.320Z,19.17
2019-03-24T10:59:22.198Z,19.19
2019-03-24T11:01:33.198Z,19.22
2019-03-24T11:03:44.183Z,19.16
2019-03-24T11:05:55.126Z,19.18
2019-03-24T11:08:06.074Z,18.78
2019-03-24T11:10:16.955Z,18.76
2019-03-24T11:12:28.653Z,18.94
2019-03-24T11:14:39.622Z,18.98
2019-03-24T11:16:50.780Z,19.10
2019-03-24T11:19:01.637Z,19.25
2019-03-24T11:21:12.590Z,19.13
2019-03-24T11:23:23.427Z,18.97
2019-03-24T11:25:34.326Z,18.85
2019-03-24T11:27:45.201Z,18.69
2019-03-24T11:29:56.135Z,18.53
2019-03-24T11:32:07.051Z,18.32
2019-03-24T11:34:17.882Z,18.16
2019-03-24T11:36:28.741Z,18.07
2019-03-24T11:38:39.583Z,17.98
2019-03-24T11:40:50.446Z,17.92
2019-03-24T11:43:01.310Z,17.88
2019-03-24T11:45:12.617Z,17.90
2019-03-24T11:47:26.901Z,17.91
2019-03-24T11:49:45.738Z,17.97
2019-03-24T11:51:48.977Z,17.82
2019-03-24T11:53:59.936Z,17.88
2019-03-24T11:56:10.806Z,17.78
2019-03-24T11:58:21.670Z,17.79
2019-03-24T12:00:34.521Z,17.83
2019-03-24T12:02:45.375Z,17.85
2019-03-24T12:04:56.337Z,17.92
2019-03-24T12:07:07.306Z,17.83
2019-03-24T12:09:18.145Z,17.79
2019-03-24T12:11:29.013Z,17.81
2019-03-24T12:13:39.836Z,17.77
2019-03-24T12:15:50.676Z,17.74
2019-03-24T12:18:01.747Z,17.70
2019-03-24T12:20:12.598Z,17.75
2019-03-24T12:22:23.480Z,17.66
2019-03-24T12:24:34.322Z,17.64
2019-03-24T12:26:45.182Z,17.67
2019-03-24T12:28:56.028Z,17.69
2019-03-24T12:31:06.999Z,17.65
2019-03-24T12:33:17.897Z,17.61
2019-03-24T12:35:28.757Z,17.61
2019-03-24T12:37:39.720Z,17.64
2019-03-24T12:39:50.905Z,17.64
2019-03-24T12:42:01.887Z,17.66
2019-03-24T12:44:12.764Z,17.63
2019-03-24T12:46:23.720Z,17.60
2019-03-24T12:48:34.587Z,17.68
2019-03-24T12:50:45.524Z,17.66
2019-03-24T12:52:56.398Z,18.04
2019-03-24T12:55:07.481Z,18.28
2019-03-24T12:57:18.461Z,18.63
2019-03-24T12:59:29.463Z,18.76
2019-03-24T13:01:43.389Z,18.73
2019-03-24T13:03:54.259Z,18.72
2019-03-24T13:06:05.229Z,18.52
2019-03-24T13:08:16.490Z,18.27
2019-03-24T13:10:27.447Z,18.06
2019-03-24T13:12:38.252Z,17.98
2019-03-24T13:14:49.534Z,17.81
2019-03-24T13:17:00.497Z,17.71
2019-03-24T13:19:11.388Z,17.48
2019-03-24T13:21:22.638Z,17.45
2019-03-24T13:23:33.517Z,17.43
2019-03-24T13:25:44.468Z,17.48
2019-03-24T13:27:55.293Z,17.52
2019-03-24T13:30:06.670Z,17.45
2019-03-24T13:32:17.510Z,17.48
2019-03-24T13:34:28.397Z,17.44
2019-03-24T13:36:39.237Z,17.33
2019-03-24T13:38:50.106Z,17.18
2019-03-24T13:41:01.057Z,17.18
2019-03-24T13:43:11.997Z,17.17
2019-03-24T13:45:22.899Z,17.17
2019-03-24T13:47:33.952Z,17.15
2019-03-24T13:49:44.893Z,17.12
2019-03-24T13:51:55.849Z,17.12
2019-03-24T13:54:06.810Z,17.15
2019-03-24T13:56:17.656Z,17.15
2019-03-24T13:58:28.508Z,17.19
2019-03-24T14:00:39.484Z,17.16
2019-03-24T14:02:50.425Z,17.14
2019-03-24T14:05:01.306Z,17.11
2019-03-24T14:07:12.240Z,17.12
2019-03-24T14:09:23.096Z,17.10
2019-03-24T14:11:34.051Z,17.04
2019-03-24T14:13:45.006Z,16.96
2019-03-24T14:15:55.861Z,16.99
2019-03-24T14:18:06.727Z,16.86
2019-03-24T14:20:17.588Z,16.84
2019-03-24T14:22:28.440Z,16.91
2019-03-24T14:24:39.281Z,16.95
2019-03-24T14:26:50.243Z,17.01
2019-03-24T14:29:01.112Z,16.91
2019-03-24T14:31:11.986Z,16.99
2019-03-24T14:33:22.835Z,16.99
2019-03-24T14:35:33.767Z,17.04
2019-03-24T14:37:44.670Z,17.41
2019-03-24T14:39:55.518Z,17.77
2019-03-24T14:42:06.501Z,18.05
2019-03-24T14:44:17.535Z,18.34
2019-03-24T14:46:28.446Z,18.61
2019-03-24T14:48:39.298Z,18.35
2019-03-24T14:50:54.853Z,18.08
2019-03-24T14:53:03.037Z,17.80
2019-03-24T14:55:13.867Z,17.46
2019-03-24T14:57:24.838Z,17.37
2019-03-24T14:59:35.771Z,17.31
2019-03-24T15:01:46.852Z,17.26
2019-03-24T15:03:57.727Z,17.22
2019-03-24T15:06:08.596Z,17.17
2019-03-24T15:08:21.459Z,17.10
2019-03-24T15:10:32.791Z,16.87
2019-03-24T15:12:43.675Z,16.74
2019-03-24T15:14:54.574Z,16.61
2019-03-24T15:17:05.547Z,16.66
2019-03-24T15:19:16.481Z,16.65
2019-03-24T15:21:27.463Z,16.55
2019-03-24T15:23:38.298Z,16.57
2019-03-24T15:25:49.277Z,16.46
2019-03-24T15:28:00.154Z,16.49
2019-03-24T15:30:11.099Z,16.45
2019-03-24T15:32:22.078Z,16.39
2019-03-24T15:34:33.107Z,16.37
2019-03-24T15:36:43.943Z,16.34
2019-03-24T15:38:54.867Z,16.33
2019-03-24T15:41:05.828Z,16.29
2019-03-24T15:43:16.710Z,16.25
2019-03-24T15:45:27.593Z,16.17
2019-03-24T15:47:38.555Z,16.14
2019-03-24T15:49:49.459Z,16.02
2019-03-24T15:52:00.297Z,15.94
2019-03-24T15:54:13.328Z,15.91
2019-03-24T15:56:24.020Z,15.79
2019-03-24T15:58:34.917Z,15.64
2019-03-24T16:00:46.279Z,15.64
2019-03-24T16:02:57.152Z,15.63
2019-03-24T16:05:08.223Z,15.59
2019-03-24T16:07:19.183Z,15.55
2019-03-24T16:09:30.063Z,15.56
2019-03-24T16:11:41.009Z,15.49
2019-03-24T16:13:51.926Z,15.46
2019-03-24T16:16:02.869Z,15.43
2019-03-24T16:18:13.820Z,15.43
2019-03-24T16:20:24.697Z,15.37
2019-03-24T16:22:35.551Z,15.33
2019-03-24T16:24:46.400Z,15.33
2019-03-24T16:26:57.456Z,15.33
2019-03-24T16:29:08.428Z,15.31
2019-03-24T16:31:19.389Z,15.18
2019-03-24T16:33:30.225Z,15.12
2019-03-24T16:35:41.084Z,15.06
2019-03-24T16:37:51.922Z,14.99
2019-03-24T16:40:06.555Z,14.89
2019-03-24T16:42:17.412Z,14.87
2019-03-24T16:44:28.275Z,14.84
2019-03-24T16:46:39.260Z,14.81
2019-03-24T16:48:50.098Z,14.73
2019-03-24T16:51:00.968Z,14.61
2019-03-24T16:53:11.947Z,14.95
2019-03-24T16:55:22.785Z,15.31
2019-03-24T16:57:33.866Z,15.64
2019-03-24T16:59:44.693Z,15.83
2019-03-24T17:01:55.670Z,15.88
2019-03-24T17:04:06.643Z,15.65
2019-03-24T17:06:17.554Z,15.32
2019-03-24T17:08:28.441Z,15.08
2019-03-24T17:10:39.327Z,14.93
2019-03-24T17:12:50.382Z,14.76
2019-03-24T17:15:01.259Z,14.56
2019-03-24T17:17:12.094Z,14.52
2019-03-24T17:19:23.121Z,14.49
2019-03-24T17:21:33.996Z,14.37
2019-03-24T17:23:44.991Z,14.24
2019-03-24T17:25:55.858Z,14.22
2019-03-24T17:28:06.717Z,14.13
2019-03-24T17:30:17.669Z,14.06
2019-03-24T17:32:28.615Z,14.04
2019-03-24T17:34:39.596Z,13.96
2019-03-24T17:36:50.484Z,13.94
2019-03-24T17:39:01.309Z,13.91
2019-03-24T17:41:12.200Z,13.89
2019-03-24T17:43:23.145Z,13.84
2019-03-24T17:45:34.248Z,13.74
2019-03-24T17:47:45.250Z,13.74
2019-03-24T17:49:56.101Z,13.73
2019-03-24T17:52:07.018Z,13.73
2019-03-24T17:54:17.863Z,13.72
2019-03-24T17:56:28.733Z,13.74
2019-03-24T17:58:39.633Z,13.72
2019-03-24T18:00:52.415Z,13.72
2019-03-24T18:03:03.391Z,13.73
2019-03-24T18:05:14.658Z,13.71
2019-03-24T18:07:25.558Z,13.70
2019-03-24T18:09:36.596Z,13.67
2019-03-24T18:11:47.615Z,13.63
2019-03-24T18:13:58.489Z,13.67
2019-03-24T18:16:09.349Z,13.69
2019-03-24T18:18:20.337Z,13.74
2019-03-24T18:20:32.724Z,13.67
2019-03-24T18:22:43.695Z,13.62
2019-03-24T18:24:54.661Z,13.62
2019-03-24T18:27:05.706Z,13.63
2019-03-24T18:29:16.584Z,13.61
2019-03-24T18:31:27.439Z,13.61
2019-03-24T18:33:38.434Z,13.48
2019-03-24T18:35:49.385Z,13.48
2019-03-24T18:38:00.331Z,13.38
2019-03-24T18:40:11.622Z,13.35
2019-03-24T18:42:22.578Z,13.32
2019-03-24T18:44:33.566Z,13.32
2019-03-24T18:46:44.438Z,13.35
2019-03-24T18:48:55.988Z,13.29
2019-03-24T18:51:06.903Z,13.28
2019-03-24T18:53:17.854Z,13.26
2019-03-24T18:55:28.949Z,13.26
2019-03-24T18:57:39.896Z,13.26
2019-03-24T18:59:50.829Z,13.21
2019-03-24T19:02:01.732Z,13.18
2019-03-24T19:04:12.695Z,13.16
2019-03-24T19:06:23.754Z,13.13
2019-03-24T19:08:34.698Z,13.12
2019-03-24T19:10:45.603Z,13.09
2019-03-24T19:12:56.442Z,13.10
2019-03-24T19:15:09.267Z,13.08
2019-03-24T19:17:20.230Z,13.07
2019-03-24T19:19:31.180Z,13.02
2019-03-24T19:21:42.109Z,13.01
2019-03-24T19:23:53.060Z,12.96
2019-03-24T19:26:04.109Z,12.95
2019-03-24T19:28:14.930Z,12.92
2019-03-24T19:30:35.510Z,12.91
2019-03-24T19:32:46.533Z,12.91
2019-03-24T19:34:57.481Z,12.88
2019-03-24T19:37:08.506Z,12.84
2019-03-24T19:39:19.556Z,12.81
2019-03-24T19:41:30.523Z,12.81
2019-03-24T19:43:41.477Z,12.80
2019-03-24T19:45:52.377Z,12.78
2019-03-24T19:48:03.356Z,12.76
2019-03-24T19:50:14.430Z,12.73
2019-03-24T19:52:25.494Z,12.66
2019-03-24T19:54:36.338Z,12.64
2019-03-24T19:56:47.228Z,12.57
2019-03-24T19:58:58.181Z,12.53
2019-03-24T20:01:09.098Z,12.52
2019-03-24T20:03:19.971Z,12.50
2019-03-24T20:05:30.920Z,12.46
2019-03-24T20:07:47.937Z,12.46
2019-03-24T20:09:56.467Z,12.48
2019-03-24T20:12:07.354Z,12.46
2019-03-24T20:14:18.219Z,12.45
2019-03-24T20:16:29.060Z,12.45
2019-03-24T20:18:40.037Z,12.41
2019-03-24T20:20:52.134Z,12.41
2019-03-24T20:23:03.330Z,12.40
2019-03-24T20:25:14.329Z,12.39
2019-03-24T20:27:26.002Z,12.39
2019-03-24T20:29:37.263Z,12.36
2019-03-24T20:31:48.244Z,12.36
2019-03-24T20:33:59.185Z,12.35
2019-03-24T20:36:10.142Z,12.30
2019-03-24T20:38:21.016Z,12.29
2019-03-24T20:40:31.969Z,12.30
2019-03-24T20:42:42.971Z,12.21
2019-03-24T20:44:53.826Z,12.16
2019-03-24T20:47:04.706Z,12.12
2019-03-24T20:49:15.585Z,12.16
2019-03-24T20:51:26.540Z,12.12
2019-03-24T20:53:37.537Z,12.06
2019-03-24T20:55:48.395Z,12.04
2019-03-24T20:57:59.286Z,12.02
2019-03-24T21:00:11.134Z,12.03
2019-03-24T21:02:21.987Z,12.03
2019-03-24T21:04:32.871Z,12.04
2019-03-24T21:06:43.825Z,12.07
2019-03-24T21:08:54.697Z,12.08
2019-03-24T21:11:05.618Z,12.07
2019-03-24T21:13:16.465Z,12.06
2019-03-24T21:15:27.441Z,12.11
2019-03-24T21:17:38.397Z,12.08
2019-03-24T21:19:49.282Z,12.01
2019-03-24T21:22:00.130Z,12.02
2019-03-24T21:24:11.112Z,12.00
2019-03-24T21:26:21.961Z,12.00
2019-03-24T21:28:32.809Z,11.94
2019-03-24T21:30:43.679Z,11.99
2019-03-24T21:32:54.678Z,11.96
2019-03-24T21:35:06.139Z,11.98
2019-03-24T21:37:17.095Z,11.97
2019-03-24T21:39:27.967Z,11.96
2019-03-24T21:41:38.903Z,11.94
2019-03-24T21:43:49.756Z,11.93
2019-03-24T21:46:00.621Z,11.93
2019-03-24T21:48:11.474Z,11.89
2019-03-24T21:50:22.333Z,11.83
2019-03-24T21:52:33.309Z,11.81
2019-03-24T21:54:44.266Z,11.83
2019-03-24T21:56:55.134Z,11.84
2019-03-24T21:59:06.087Z,11.86
2019-03-24T22:01:17.058Z,11.83
2019-03-24T22:03:27.901Z,11.81
2019-03-24T22:05:38.777Z,11.73
2019-03-24T22:07:49.733Z,11.68
2019-03-24T22:10:00.588Z,11.68
2019-03-24T22:12:11.573Z,11.68
2019-03-24T22:14:22.603Z,11.58
2019-03-24T22:16:33.452Z,11.56
2019-03-24T22:18:44.313Z,11.59
2019-03-24T22:20:55.162Z,11.63
2019-03-24T22:23:06.150Z,11.57
2019-03-24T22:25:17.074Z,11.50
2019-03-24T22:27:27.952Z,11.43
2019-03-24T22:29:38.893Z,11.42
2019-03-24T22:31:49.757Z,11.41
2019-03-24T22:34:00.589Z,11.39
2019-03-24T22:36:11.547Z,11.36
2019-03-24T22:38:22.503Z,11.35
2019-03-24T22:40:33.572Z,11.38
2019-03-24T22:42:44.531Z,11.35
2019-03-24T22:44:55.405Z,11.38
2019-03-24T22:47:06.264Z,11.24
2019-03-24T22:49:17.149Z,11.23
2019-03-24T22:51:27.981Z,11.16
2019-03-24T22:53:38.840Z,11.16
2019-03-24T22:55:49.702Z,11.21
2019-03-24T22:58:00.594Z,11.20
2019-03-24T23:00:14.168Z,11.20
2019-03-24T23:02:25.108Z,11.18
2019-03-24T23:04:35.963Z,11.16
2019-03-24T23:06:46.910Z,11.20
2019-03-24T23:08:57.778Z,11.16
2019-03-24T23:11:08.717Z,11.12
2019-03-24T23:13:19.566Z,11.11
2019-03-24T23:15:30.425Z,11.06
2019-03-24T23:17:41.377Z,11.05
2019-03-24T23:19:52.354Z,10.99
2019-03-24T23:22:03.214Z,11.03
2019-03-24T23:24:15.654Z,11.00
2019-03-24T23:26:26.707Z,11.01
2019-03-24T23:28:37.552Z,10.99
2019-03-24T23:30:48.517Z,10.98
2019-03-24T23:32:59.355Z,10.96
2019-03-24T23:35:10.312Z,10.90
2019-03-24T23:37:21.171Z,10.86
2019-03-24T23:39:32.054Z,10.88
2019-03-24T23:41:42.892Z,10.86
2019-03-24T23:43:53.736Z,10.87
2019-03-24T23:46:04.704Z,10.74
2019-03-24T23:48:15.556Z,10.68
2019-03-24T23:50:26.422Z,10.60
2019-03-24T23:52:37.256Z,10.63
2019-03-24T23:54:48.123Z,10.55
2019-03-24T23:56:58.992Z,10.50
2019-03-24T23:59:09.927Z,10.51
